GDONJ EGHQ-EGHH
Flight info
| Callsign | GDONJ |
|---|---|
| Flight time | 1h 8m |
| Altitude | 2500 |
| Route | EGHQ EGHH |
| Aircraft | CESS/L-V/N |
Departure
| Time | 2026-05-05 18:33 |
|---|---|
| Airport | Cornwall Airport Newquay (EGHQ) |
Arrival
| Time | 2026-05-05 19:41 |
|---|---|
| Airport | Bournemouth Airport (EGHH) |
| Time | Latitude | Longitude | Altitude | Speed | Heading |
|---|---|---|---|---|---|
| 2026-05-05 18:12 | 50.43658 | -4.99493 | 335 ft | 0 kts | 355° |
| 2026-05-05 18:15 | 50.43659 | -4.99493 | 335 ft | 2 kts | 351° |
| 2026-05-05 18:16 | 50.43661 | -4.99494 | 333 ft | 0 kts | 340° |
| 2026-05-05 18:16 | 50.43671 | -4.99500 | 335 ft | 4 kts | 337° |
| 2026-05-05 18:16 | 50.43704 | -4.99522 | 336 ft | 7 kts | 343° |
| 2026-05-05 18:17 | 50.43762 | -4.99522 | 333 ft | 11 kts | 4° |
| 2026-05-05 18:17 | 50.43846 | -4.99514 | 334 ft | 13 kts | 2° |
| 2026-05-05 18:17 | 50.43903 | -4.99509 | 331 ft | 0 kts | 7° |
| 2026-05-05 18:29 | 50.43919 | -4.99508 | 331 ft | 6 kts | 1° |
| 2026-05-05 18:29 | 50.43938 | -4.99507 | 330 ft | 0 kts | 0° |
| 2026-05-05 18:30 | 50.44017 | -4.99500 | 328 ft | 17 kts | 4° |
| 2026-05-05 18:31 | 50.44109 | -4.99601 | 326 ft | 6 kts | 308° |
| 2026-05-05 18:31 | 50.44112 | -4.99607 | 326 ft | 0 kts | 307° |
| 2026-05-05 18:31 | 50.44158 | -4.99745 | 325 ft | 44 kts | 299° |
| 2026-05-05 18:31 | 50.44422 | -5.00434 | 352 ft | 96 kts | 301° |
| 2026-05-05 18:32 | 50.44792 | -5.01383 | 547 ft | 105 kts | 311° |
| 2026-05-05 18:32 | 50.45366 | -5.02073 | 754 ft | 106 kts | 332° |
| 2026-05-05 18:32 | 50.46077 | -5.02467 | 905 ft | 103 kts | 347° |
| 2026-05-05 18:32 | 50.46791 | -5.02656 | 922 ft | 110 kts | 355° |
| 2026-05-05 18:33 | 50.47535 | -5.02491 | 999 ft | 110 kts | 29° |
| 2026-05-05 18:33 | 50.47934 | -5.01461 | 959 ft | 117 kts | 86° |
| 2026-05-05 18:33 | 50.47877 | -5.00272 | 1137 ft | 105 kts | 86° |
| 2026-05-05 18:33 | 50.48084 | -4.99124 | 1123 ft | 114 kts | 63° |
| 2026-05-05 18:34 | 50.48440 | -4.98069 | 1288 ft | 104 kts | 61° |
| 2026-05-05 18:34 | 50.48861 | -4.97097 | 1307 ft | 112 kts | 49° |
| 2026-05-05 18:34 | 50.49389 | -4.96235 | 1445 ft | 107 kts | 43° |
| 2026-05-05 18:34 | 50.49897 | -4.95425 | 1587 ft | 101 kts | 66° |
| 2026-05-05 18:35 | 50.49993 | -4.94731 | 1700 ft | 96 kts | 79° |
| 2026-05-05 18:35 | 50.50059 | -4.93701 | 1901 ft | 92 kts | 94° |
| 2026-05-05 18:35 | 50.49988 | -4.92704 | 2102 ft | 94 kts | 100° |
| 2026-05-05 18:35 | 50.49875 | -4.91668 | 2325 ft | 99 kts | 102° |
| 2026-05-05 18:36 | 50.49705 | -4.90575 | 2434 ft | 110 kts | 109° |
| 2026-05-05 18:36 | 50.49447 | -4.89404 | 2499 ft | 114 kts | 112° |
| 2026-05-05 18:36 | 50.49164 | -4.88269 | 2502 ft | 110 kts | 114° |
| 2026-05-05 18:36 | 50.48875 | -4.87163 | 2505 ft | 109 kts | 114° |
| 2026-05-05 18:37 | 50.48580 | -4.86052 | 2507 ft | 110 kts | 114° |
| 2026-05-05 18:37 | 50.48281 | -4.84939 | 2518 ft | 112 kts | 114° |
| 2026-05-05 18:37 | 50.47976 | -4.83806 | 2495 ft | 112 kts | 114° |
| 2026-05-05 18:37 | 50.47679 | -4.82692 | 2499 ft | 110 kts | 114° |
| 2026-05-05 18:38 | 50.47412 | -4.81551 | 2507 ft | 113 kts | 110° |
| 2026-05-05 18:38 | 50.47162 | -4.80382 | 2486 ft | 113 kts | 110° |
| 2026-05-05 18:38 | 50.46912 | -4.79194 | 2529 ft | 117 kts | 109° |
| 2026-05-05 18:38 | 50.46655 | -4.77970 | 2534 ft | 119 kts | 109° |
| 2026-05-05 18:39 | 50.46397 | -4.76730 | 2515 ft | 120 kts | 109° |
| 2026-05-05 18:39 | 50.46142 | -4.75494 | 2517 ft | 119 kts | 110° |
| 2026-05-05 18:39 | 50.45887 | -4.74254 | 2515 ft | 120 kts | 109° |
| 2026-05-05 18:39 | 50.45629 | -4.73023 | 2493 ft | 118 kts | 109° |
| 2026-05-05 18:40 | 50.45440 | -4.71794 | 2491 ft | 116 kts | 96° |
| 2026-05-05 18:40 | 50.45391 | -4.70536 | 2496 ft | 115 kts | 94° |
| 2026-05-05 18:40 | 50.45372 | -4.69271 | 2526 ft | 117 kts | 92° |
| 2026-05-05 18:40 | 50.45368 | -4.67995 | 2513 ft | 117 kts | 90° |
| 2026-05-05 18:41 | 50.45407 | -4.66711 | 2529 ft | 119 kts | 88° |
| 2026-05-05 18:41 | 50.45464 | -4.65402 | 2556 ft | 121 kts | 87° |
| 2026-05-05 18:41 | 50.45529 | -4.64087 | 2528 ft | 120 kts | 87° |
| 2026-05-05 18:41 | 50.45593 | -4.62791 | 2526 ft | 119 kts | 86° |
| 2026-05-05 18:42 | 50.45659 | -4.61491 | 2515 ft | 119 kts | 86° |
| 2026-05-05 18:42 | 50.45724 | -4.60201 | 2513 ft | 118 kts | 86° |
| 2026-05-05 18:42 | 50.45791 | -4.58902 | 2523 ft | 120 kts | 86° |
| 2026-05-05 18:42 | 50.45855 | -4.57584 | 2510 ft | 121 kts | 86° |
| 2026-05-05 18:43 | 50.45923 | -4.56263 | 2517 ft | 122 kts | 86° |
| 2026-05-05 18:43 | 50.45991 | -4.54931 | 2502 ft | 122 kts | 86° |
| 2026-05-05 18:43 | 50.46060 | -4.53602 | 2506 ft | 122 kts | 86° |
| 2026-05-05 18:43 | 50.46127 | -4.52270 | 2500 ft | 122 kts | 86° |
| 2026-05-05 18:44 | 50.46193 | -4.50943 | 2504 ft | 123 kts | 86° |
| 2026-05-05 18:44 | 50.46278 | -4.49632 | 2505 ft | 122 kts | 84° |
| 2026-05-05 18:44 | 50.46395 | -4.48311 | 2489 ft | 122 kts | 82° |
| 2026-05-05 18:44 | 50.46531 | -4.46981 | 2503 ft | 122 kts | 82° |
| 2026-05-05 18:45 | 50.46663 | -4.45678 | 2503 ft | 123 kts | 82° |
| 2026-05-05 18:45 | 50.46801 | -4.44340 | 2488 ft | 122 kts | 82° |
| 2026-05-05 18:45 | 50.46935 | -4.43064 | 2470 ft | 118 kts | 82° |
| 2026-05-05 18:45 | 50.47069 | -4.41803 | 2500 ft | 118 kts | 81° |
| 2026-05-05 18:46 | 50.47205 | -4.40538 | 2487 ft | 117 kts | 82° |
| 2026-05-05 18:46 | 50.47337 | -4.39278 | 2502 ft | 117 kts | 81° |
| 2026-05-05 18:46 | 50.47473 | -4.38003 | 2526 ft | 120 kts | 82° |
| 2026-05-05 18:46 | 50.47613 | -4.36692 | 2513 ft | 123 kts | 81° |
| 2026-05-05 18:47 | 50.47754 | -4.35376 | 2506 ft | 122 kts | 81° |
| 2026-05-05 18:47 | 50.47900 | -4.34058 | 2511 ft | 123 kts | 80° |
| 2026-05-05 18:47 | 50.48059 | -4.32734 | 2495 ft | 123 kts | 79° |
| 2026-05-05 18:47 | 50.48210 | -4.31410 | 2499 ft | 123 kts | 84° |
| 2026-05-05 18:48 | 50.48282 | -4.30071 | 2514 ft | 124 kts | 88° |
| 2026-05-05 18:48 | 50.48326 | -4.28722 | 2482 ft | 123 kts | 89° |
| 2026-05-05 18:48 | 50.48358 | -4.27395 | 2498 ft | 121 kts | 89° |
| 2026-05-05 18:48 | 50.48384 | -4.26066 | 2516 ft | 123 kts | 90° |
| 2026-05-05 18:49 | 50.48408 | -4.24719 | 2512 ft | 124 kts | 90° |
| 2026-05-05 18:49 | 50.48434 | -4.23361 | 2501 ft | 124 kts | 90° |
| 2026-05-05 18:49 | 50.48454 | -4.22005 | 2486 ft | 123 kts | 90° |
| 2026-05-05 18:49 | 50.48476 | -4.20675 | 2499 ft | 122 kts | 90° |
| 2026-05-05 18:50 | 50.48497 | -4.19333 | 2490 ft | 122 kts | 90° |
| 2026-05-05 18:50 | 50.48518 | -4.18019 | 2469 ft | 119 kts | 90° |
| 2026-05-05 18:50 | 50.48542 | -4.16735 | 2502 ft | 118 kts | 90° |
| 2026-05-05 18:50 | 50.48567 | -4.15429 | 2501 ft | 120 kts | 90° |
| 2026-05-05 18:51 | 50.48589 | -4.14126 | 2481 ft | 118 kts | 90° |
| 2026-05-05 18:51 | 50.48611 | -4.12841 | 2519 ft | 119 kts | 89° |
| 2026-05-05 18:51 | 50.48633 | -4.11516 | 2515 ft | 122 kts | 90° |
| 2026-05-05 18:51 | 50.48654 | -4.10173 | 2511 ft | 124 kts | 90° |
| 2026-05-05 18:52 | 50.48676 | -4.08818 | 2503 ft | 124 kts | 90° |
| 2026-05-05 18:52 | 50.48698 | -4.07479 | 2496 ft | 122 kts | 90° |
| 2026-05-05 18:52 | 50.48721 | -4.06149 | 2489 ft | 121 kts | 90° |
| 2026-05-05 18:52 | 50.48743 | -4.04866 | 2480 ft | 119 kts | 90° |
| 2026-05-05 18:53 | 50.48765 | -4.03566 | 2476 ft | 116 kts | 89° |
| 2026-05-05 18:53 | 50.48786 | -4.02310 | 2478 ft | 114 kts | 89° |
| 2026-05-05 18:53 | 50.48808 | -4.01072 | 2492 ft | 113 kts | 89° |
| 2026-05-05 18:53 | 50.48829 | -3.99835 | 2497 ft | 114 kts | 90° |
| 2026-05-05 18:54 | 50.48850 | -3.98589 | 2501 ft | 114 kts | 90° |
| 2026-05-05 18:54 | 50.48871 | -3.97341 | 2497 ft | 114 kts | 90° |
| 2026-05-05 18:54 | 50.48893 | -3.96094 | 2498 ft | 114 kts | 90° |
| 2026-05-05 18:54 | 50.48914 | -3.94868 | 2497 ft | 114 kts | 90° |
| 2026-05-05 18:55 | 50.48939 | -3.93628 | 2496 ft | 113 kts | 88° |
| 2026-05-05 18:55 | 50.49017 | -3.92398 | 2497 ft | 113 kts | 83° |
| 2026-05-05 18:55 | 50.49145 | -3.91183 | 2497 ft | 113 kts | 81° |
| 2026-05-05 18:55 | 50.49288 | -3.89976 | 2496 ft | 112 kts | 80° |
| 2026-05-05 18:56 | 50.49438 | -3.88770 | 2501 ft | 113 kts | 80° |
| 2026-05-05 18:56 | 50.49589 | -3.87564 | 2504 ft | 113 kts | 80° |
| 2026-05-05 18:56 | 50.49743 | -3.86349 | 2507 ft | 114 kts | 79° |
| 2026-05-05 18:56 | 50.49898 | -3.85120 | 2511 ft | 116 kts | 79° |
| 2026-05-05 18:57 | 50.50055 | -3.83883 | 2497 ft | 115 kts | 79° |
| 2026-05-05 18:57 | 50.50212 | -3.82658 | 2497 ft | 114 kts | 79° |
| 2026-05-05 18:57 | 50.50371 | -3.81436 | 2512 ft | 115 kts | 79° |
| 2026-05-05 18:57 | 50.50530 | -3.80202 | 2505 ft | 115 kts | 79° |
| 2026-05-05 18:58 | 50.50687 | -3.78974 | 2498 ft | 114 kts | 79° |
| 2026-05-05 18:58 | 50.50842 | -3.77758 | 2499 ft | 114 kts | 79° |
| 2026-05-05 18:58 | 50.50996 | -3.76541 | 2498 ft | 113 kts | 79° |
| 2026-05-05 18:58 | 50.51150 | -3.75330 | 2500 ft | 113 kts | 79° |
| 2026-05-05 18:59 | 50.51304 | -3.74118 | 2502 ft | 113 kts | 80° |
| 2026-05-05 18:59 | 50.51433 | -3.72897 | 2514 ft | 114 kts | 83° |
| 2026-05-05 18:59 | 50.51539 | -3.71650 | 2521 ft | 116 kts | 84° |
| 2026-05-05 18:59 | 50.51640 | -3.70373 | 2517 ft | 119 kts | 85° |
| 2026-05-05 19:00 | 50.51739 | -3.69077 | 2529 ft | 119 kts | 85° |
| 2026-05-05 19:00 | 50.51835 | -3.67779 | 2526 ft | 120 kts | 85° |
| 2026-05-05 19:00 | 50.51928 | -3.66485 | 2500 ft | 118 kts | 85° |
| 2026-05-05 19:00 | 50.52018 | -3.65215 | 2512 ft | 117 kts | 84° |
| 2026-05-05 19:01 | 50.52106 | -3.63941 | 2504 ft | 117 kts | 85° |
| 2026-05-05 19:01 | 50.52195 | -3.62676 | 2500 ft | 116 kts | 85° |
| 2026-05-05 19:01 | 50.52283 | -3.61415 | 2497 ft | 116 kts | 85° |
| 2026-05-05 19:01 | 50.52370 | -3.60168 | 2492 ft | 114 kts | 84° |
| 2026-05-05 19:02 | 50.52457 | -3.58929 | 2514 ft | 115 kts | 85° |
| 2026-05-05 19:02 | 50.52544 | -3.57689 | 2515 ft | 116 kts | 85° |
| 2026-05-05 19:02 | 50.52637 | -3.56416 | 2523 ft | 117 kts | 84° |
| 2026-05-05 19:02 | 50.52754 | -3.55141 | 2559 ft | 119 kts | 82° |
| 2026-05-05 19:03 | 50.52898 | -3.53849 | 2528 ft | 119 kts | 81° |
| 2026-05-05 19:03 | 50.53052 | -3.52571 | 2534 ft | 120 kts | 80° |
| 2026-05-05 19:03 | 50.53210 | -3.51283 | 2515 ft | 120 kts | 80° |
| 2026-05-05 19:03 | 50.53369 | -3.49991 | 2519 ft | 121 kts | 80° |
| 2026-05-05 19:04 | 50.53530 | -3.48700 | 2495 ft | 120 kts | 80° |
| 2026-05-05 19:04 | 50.53688 | -3.47432 | 2485 ft | 117 kts | 80° |
| 2026-05-05 19:04 | 50.53843 | -3.46190 | 2486 ft | 115 kts | 80° |
| 2026-05-05 19:04 | 50.53997 | -3.44965 | 2489 ft | 114 kts | 80° |
| 2026-05-05 19:05 | 50.54150 | -3.43748 | 2494 ft | 113 kts | 80° |
| 2026-05-05 19:05 | 50.54303 | -3.42535 | 2496 ft | 113 kts | 80° |
| 2026-05-05 19:05 | 50.54455 | -3.41321 | 2498 ft | 113 kts | 80° |
| 2026-05-05 19:05 | 50.54608 | -3.40106 | 2498 ft | 113 kts | 80° |
| 2026-05-05 19:06 | 50.54761 | -3.38895 | 2498 ft | 113 kts | 80° |
| 2026-05-05 19:06 | 50.54914 | -3.37682 | 2499 ft | 113 kts | 80° |
| 2026-05-05 19:06 | 50.55066 | -3.36468 | 2500 ft | 113 kts | 80° |
| 2026-05-05 19:06 | 50.55218 | -3.35257 | 2500 ft | 113 kts | 80° |
| 2026-05-05 19:07 | 50.55370 | -3.34045 | 2500 ft | 113 kts | 80° |
| 2026-05-05 19:07 | 50.55522 | -3.32830 | 2501 ft | 113 kts | 80° |
| 2026-05-05 19:07 | 50.55674 | -3.31616 | 2501 ft | 113 kts | 80° |
| 2026-05-05 19:07 | 50.55827 | -3.30396 | 2501 ft | 113 kts | 80° |
| 2026-05-05 19:08 | 50.55979 | -3.29181 | 2501 ft | 113 kts | 80° |
| 2026-05-05 19:08 | 50.56132 | -3.27964 | 2500 ft | 113 kts | 80° |
| 2026-05-05 19:08 | 50.56231 | -3.26734 | 2501 ft | 113 kts | 86° |
| 2026-05-05 19:08 | 50.56277 | -3.25495 | 2499 ft | 113 kts | 89° |
| 2026-05-05 19:09 | 50.56307 | -3.24255 | 2499 ft | 113 kts | 89° |
| 2026-05-05 19:09 | 50.56329 | -3.23035 | 2499 ft | 113 kts | 90° |
| 2026-05-05 19:09 | 50.56350 | -3.21796 | 2500 ft | 113 kts | 90° |
| 2026-05-05 19:09 | 50.56369 | -3.20559 | 2500 ft | 113 kts | 90° |
| 2026-05-05 19:10 | 50.56387 | -3.19321 | 2500 ft | 113 kts | 90° |
| 2026-05-05 19:10 | 50.56404 | -3.18082 | 2500 ft | 113 kts | 90° |
| 2026-05-05 19:10 | 50.56422 | -3.16844 | 2501 ft | 113 kts | 90° |
| 2026-05-05 19:10 | 50.56440 | -3.15604 | 2500 ft | 113 kts | 90° |
| 2026-05-05 19:11 | 50.56458 | -3.14365 | 2500 ft | 113 kts | 90° |
| 2026-05-05 19:11 | 50.56475 | -3.13126 | 2499 ft | 113 kts | 90° |
| 2026-05-05 19:11 | 50.56492 | -3.11888 | 2500 ft | 113 kts | 90° |
| 2026-05-05 19:11 | 50.56510 | -3.10647 | 2500 ft | 113 kts | 90° |
| 2026-05-05 19:12 | 50.56527 | -3.09407 | 2500 ft | 113 kts | 90° |
| 2026-05-05 19:12 | 50.56545 | -3.08168 | 2500 ft | 113 kts | 90° |
| 2026-05-05 19:12 | 50.56561 | -3.06929 | 2500 ft | 113 kts | 90° |
| 2026-05-05 19:12 | 50.56578 | -3.05690 | 2500 ft | 113 kts | 90° |
| 2026-05-05 19:13 | 50.56595 | -3.04451 | 2500 ft | 113 kts | 90° |
| 2026-05-05 19:13 | 50.56611 | -3.03212 | 2500 ft | 113 kts | 90° |
| 2026-05-05 19:13 | 50.56628 | -3.01971 | 2500 ft | 113 kts | 90° |
| 2026-05-05 19:13 | 50.56645 | -3.00733 | 2500 ft | 113 kts | 90° |
| 2026-05-05 19:14 | 50.56661 | -2.99494 | 2501 ft | 113 kts | 90° |
| 2026-05-05 19:14 | 50.56678 | -2.98254 | 2500 ft | 113 kts | 90° |
| 2026-05-05 19:14 | 50.56695 | -2.97014 | 2500 ft | 113 kts | 90° |
| 2026-05-05 19:14 | 50.56713 | -2.95774 | 2499 ft | 113 kts | 90° |
| 2026-05-05 19:15 | 50.56729 | -2.94534 | 2499 ft | 113 kts | 90° |
| 2026-05-05 19:15 | 50.56746 | -2.93297 | 2500 ft | 113 kts | 90° |
| 2026-05-05 19:15 | 50.56763 | -2.92057 | 2500 ft | 113 kts | 90° |
| 2026-05-05 19:15 | 50.56779 | -2.90822 | 2500 ft | 113 kts | 90° |
| 2026-05-05 19:16 | 50.56795 | -2.89583 | 2500 ft | 113 kts | 90° |
| 2026-05-05 19:16 | 50.56811 | -2.88346 | 2501 ft | 113 kts | 90° |
| 2026-05-05 19:16 | 50.56828 | -2.87108 | 2501 ft | 113 kts | 90° |
| 2026-05-05 19:16 | 50.56844 | -2.85871 | 2501 ft | 113 kts | 90° |
| 2026-05-05 19:17 | 50.56859 | -2.84631 | 2500 ft | 113 kts | 90° |
| 2026-05-05 19:17 | 50.56874 | -2.83391 | 2501 ft | 113 kts | 91° |
| 2026-05-05 19:17 | 50.56797 | -2.82176 | 2501 ft | 113 kts | 100° |
| 2026-05-05 19:17 | 50.56655 | -2.80941 | 2501 ft | 113 kts | 103° |
| 2026-05-05 19:18 | 50.56526 | -2.79734 | 2498 ft | 114 kts | 95° |
| 2026-05-05 19:18 | 50.56554 | -2.78492 | 2497 ft | 113 kts | 83° |
| 2026-05-05 19:18 | 50.56692 | -2.77275 | 2498 ft | 113 kts | 79° |
| 2026-05-05 19:18 | 50.56861 | -2.76066 | 2500 ft | 113 kts | 78° |
| 2026-05-05 19:19 | 50.57041 | -2.74864 | 2500 ft | 113 kts | 77° |
| 2026-05-05 19:19 | 50.57227 | -2.73661 | 2500 ft | 113 kts | 77° |
| 2026-05-05 19:19 | 50.57414 | -2.72459 | 2500 ft | 113 kts | 77° |
| 2026-05-05 19:19 | 50.57603 | -2.71258 | 2501 ft | 113 kts | 77° |
| 2026-05-05 19:20 | 50.57791 | -2.70057 | 2501 ft | 113 kts | 77° |
| 2026-05-05 19:20 | 50.57981 | -2.68853 | 2500 ft | 113 kts | 77° |
| 2026-05-05 19:20 | 50.58170 | -2.67649 | 2500 ft | 113 kts | 77° |
| 2026-05-05 19:20 | 50.58360 | -2.66446 | 2500 ft | 113 kts | 77° |
| 2026-05-05 19:21 | 50.58549 | -2.65245 | 2500 ft | 113 kts | 77° |
| 2026-05-05 19:21 | 50.58739 | -2.64040 | 2500 ft | 113 kts | 77° |
| 2026-05-05 19:21 | 50.58927 | -2.62840 | 2500 ft | 113 kts | 77° |
| 2026-05-05 19:21 | 50.59116 | -2.61638 | 2500 ft | 113 kts | 77° |
| 2026-05-05 19:22 | 50.59241 | -2.60841 | 2501 ft | 113 kts | 77° |
| 2026-05-05 19:22 | 50.59429 | -2.59637 | 2501 ft | 113 kts | 77° |
| 2026-05-05 19:22 | 50.59618 | -2.58433 | 2500 ft | 113 kts | 77° |
| 2026-05-05 19:22 | 50.59807 | -2.57229 | 2500 ft | 113 kts | 77° |
| 2026-05-05 19:23 | 50.59996 | -2.56022 | 2500 ft | 113 kts | 77° |
| 2026-05-05 19:23 | 50.60247 | -2.54425 | 2500 ft | 113 kts | 77° |
| 2026-05-05 19:23 | 50.60375 | -2.53612 | 2499 ft | 113 kts | 77° |
| 2026-05-05 19:23 | 50.60625 | -2.52018 | 2500 ft | 113 kts | 77° |
| 2026-05-05 19:24 | 50.60753 | -2.51199 | 2510 ft | 114 kts | 77° |
| 2026-05-05 19:24 | 50.60943 | -2.49982 | 2506 ft | 115 kts | 77° |
| 2026-05-05 19:24 | 50.61134 | -2.48764 | 2523 ft | 117 kts | 77° |
| 2026-05-05 19:24 | 50.61333 | -2.47502 | 2525 ft | 120 kts | 77° |
| 2026-05-05 19:25 | 50.61536 | -2.46197 | 2516 ft | 122 kts | 77° |
| 2026-05-05 19:25 | 50.61736 | -2.44906 | 2519 ft | 122 kts | 77° |
| 2026-05-05 19:25 | 50.61933 | -2.43631 | 2488 ft | 120 kts | 77° |
| 2026-05-05 19:25 | 50.62130 | -2.42366 | 2478 ft | 117 kts | 77° |
| 2026-05-05 19:26 | 50.62322 | -2.41131 | 2480 ft | 115 kts | 77° |
| 2026-05-05 19:26 | 50.62512 | -2.39914 | 2485 ft | 114 kts | 77° |
| 2026-05-05 19:26 | 50.62698 | -2.38724 | 2491 ft | 115 kts | 77° |
| 2026-05-05 19:26 | 50.62896 | -2.37460 | 2495 ft | 116 kts | 77° |
| 2026-05-05 19:27 | 50.63088 | -2.36226 | 2496 ft | 116 kts | 77° |
| 2026-05-05 19:27 | 50.63283 | -2.34977 | 2542 ft | 119 kts | 77° |
| 2026-05-05 19:27 | 50.63481 | -2.33704 | 2518 ft | 120 kts | 77° |
| 2026-05-05 19:27 | 50.63683 | -2.32424 | 2545 ft | 122 kts | 77° |
| 2026-05-05 19:28 | 50.63888 | -2.31109 | 2522 ft | 124 kts | 77° |
| 2026-05-05 19:28 | 50.64093 | -2.29793 | 2516 ft | 124 kts | 77° |
| 2026-05-05 19:28 | 50.64296 | -2.28483 | 2494 ft | 122 kts | 77° |
| 2026-05-05 19:28 | 50.64498 | -2.27187 | 2500 ft | 122 kts | 77° |
| 2026-05-05 19:29 | 50.64697 | -2.25902 | 2485 ft | 120 kts | 77° |
| 2026-05-05 19:29 | 50.64895 | -2.24630 | 2501 ft | 120 kts | 77° |
| 2026-05-05 19:29 | 50.65093 | -2.23358 | 2496 ft | 119 kts | 77° |
| 2026-05-05 19:29 | 50.65290 | -2.22079 | 2522 ft | 122 kts | 77° |
| 2026-05-05 19:30 | 50.65490 | -2.20764 | 2517 ft | 124 kts | 77° |
| 2026-05-05 19:30 | 50.65694 | -2.19438 | 2495 ft | 124 kts | 77° |
| 2026-05-05 19:30 | 50.65896 | -2.18125 | 2504 ft | 124 kts | 77° |
| 2026-05-05 19:30 | 50.66099 | -2.16815 | 2497 ft | 123 kts | 77° |
| 2026-05-05 19:31 | 50.66303 | -2.15503 | 2507 ft | 124 kts | 77° |
| 2026-05-05 19:31 | 50.66506 | -2.14191 | 2481 ft | 122 kts | 77° |
| 2026-05-05 19:31 | 50.66708 | -2.12889 | 2386 ft | 126 kts | 77° |
| 2026-05-05 19:31 | 50.66923 | -2.11498 | 2264 ft | 134 kts | 77° |
| 2026-05-05 19:32 | 50.67140 | -2.10057 | 2127 ft | 136 kts | 79° |
| 2026-05-05 19:32 | 50.67309 | -2.08577 | 1967 ft | 138 kts | 82° |
| 2026-05-05 19:32 | 50.67443 | -2.07080 | 1771 ft | 138 kts | 84° |
| 2026-05-05 19:32 | 50.67555 | -2.05581 | 1623 ft | 136 kts | 84° |
| 2026-05-05 19:33 | 50.67654 | -2.04129 | 1552 ft | 131 kts | 85° |
| 2026-05-05 19:33 | 50.67748 | -2.02716 | 1545 ft | 129 kts | 85° |
| 2026-05-05 19:33 | 50.67838 | -2.01322 | 1507 ft | 126 kts | 85° |
| 2026-05-05 19:33 | 50.67927 | -1.99958 | 1494 ft | 123 kts | 85° |
| 2026-05-05 19:34 | 50.68013 | -1.98627 | 1491 ft | 121 kts | 86° |
| 2026-05-05 19:34 | 50.68044 | -1.97311 | 1490 ft | 120 kts | 91° |
| 2026-05-05 19:34 | 50.67988 | -1.96009 | 1493 ft | 119 kts | 98° |
| 2026-05-05 19:35 | 50.68269 | -1.93610 | 857 ft | 152 kts | 17° |
| 2026-05-05 19:35 | 50.69130 | -1.93826 | 1104 ft | 116 kts | 334° |
| 2026-05-05 19:35 | 50.69839 | -1.94367 | 1170 ft | 110 kts | 337° |
| 2026-05-05 19:35 | 50.70515 | -1.94780 | 1281 ft | 106 kts | 338° |
| 2026-05-05 19:36 | 50.71209 | -1.95298 | 1299 ft | 110 kts | 332° |
| 2026-05-05 19:36 | 50.71884 | -1.95800 | 1412 ft | 106 kts | 337° |
| 2026-05-05 19:36 | 50.72574 | -1.96225 | 1461 ft | 109 kts | 339° |
| 2026-05-05 19:36 | 50.73265 | -1.96683 | 1552 ft | 108 kts | 333° |
| 2026-05-05 19:37 | 50.73972 | -1.97182 | 1633 ft | 107 kts | 336° |
| 2026-05-05 19:37 | 50.74702 | -1.97530 | 1661 ft | 115 kts | 353° |
| 2026-05-05 19:37 | 50.75457 | -1.97518 | 1858 ft | 106 kts | 9° |
| 2026-05-05 19:37 | 50.76146 | -1.96982 | 1888 ft | 110 kts | 37° |
| 2026-05-05 19:38 | 50.76617 | -1.96058 | 1838 ft | 123 kts | 75° |
| 2026-05-05 19:38 | 50.76732 | -1.94735 | 1775 ft | 121 kts | 89° |
| 2026-05-05 19:38 | 50.76777 | -1.93471 | 1685 ft | 112 kts | 84° |
| 2026-05-05 19:38 | 50.76878 | -1.92306 | 1616 ft | 92 kts | 80° |
| 2026-05-05 19:39 | 50.76992 | -1.91369 | 1458 ft | 85 kts | 79° |
| 2026-05-05 19:39 | 50.77099 | -1.90471 | 1170 ft | 83 kts | 81° |
| 2026-05-05 19:39 | 50.77198 | -1.89600 | 901 ft | 77 kts | 81° |
| 2026-05-05 19:39 | 50.77290 | -1.88763 | 620 ft | 77 kts | 80° |
| 2026-05-05 19:40 | 50.77369 | -1.87931 | 306 ft | 77 kts | 85° |
| 2026-05-05 19:40 | 50.77480 | -1.87103 | 115 ft | 75 kts | 72° |
| 2026-05-05 19:40 | 50.77629 | -1.86344 | 81 ft | 72 kts | 74° |
| 2026-05-05 19:40 | 50.77781 | -1.85613 | 45 ft | 65 kts | 74° |
| 2026-05-05 19:41 | 50.77866 | -1.85074 | 44 ft | 40 kts | 77° |
| 2026-05-05 19:41 | 50.77926 | -1.84713 | 42 ft | 30 kts | 71° |
| 2026-05-05 19:41 | 50.77993 | -1.84409 | 38 ft | 29 kts | 74° |
| 2026-05-05 19:41 | 50.78036 | -1.84112 | 37 ft | 26 kts | 76° |
| 2026-05-05 19:42 | 50.78110 | -1.83913 | 38 ft | 18 kts | 351° |
| 2026-05-05 19:42 | 50.78216 | -1.83977 | 38 ft | 15 kts | 339° |
| 2026-05-05 19:42 | 50.78333 | -1.84020 | 38 ft | 19 kts | 349° |
| 2026-05-05 19:42 | 50.78467 | -1.84077 | 38 ft | 20 kts | 341° |
| 2026-05-05 19:43 | 50.78605 | -1.84134 | 38 ft | 21 kts | 352° |
| 2026-05-05 19:43 | 50.78748 | -1.84181 | 38 ft | 21 kts | 343° |
| 2026-05-05 19:43 | 50.78832 | -1.84255 | 38 ft | 13 kts | 283° |
| 2026-05-05 19:43 | 50.78801 | -1.84380 | 39 ft | 12 kts | 246° |
| 2026-05-05 19:44 | 50.78762 | -1.84467 | 39 ft | 10 kts | 169° |
| 2026-05-05 19:44 | 50.78701 | -1.84455 | 39 ft | 8 kts | 175° |
| 2026-05-05 19:44 | 50.78689 | -1.84432 | 39 ft | 2 kts | 96° |
| 2026-05-05 19:44 | 50.78674 | -1.84429 | 39 ft | 4 kts | 226° |
| 2026-05-05 19:45 | 50.78672 | -1.84431 | 39 ft | 0 kts | 222° |